sensor_id;sensor_type;location;lat;lon;timestamp;temperature;humidity
75262;DHT22;63859;51.064;4.580;2022-10-18T00:01:55;16.00;99.90
75262;DHT22;63859;51.064;4.580;2022-10-18T00:04:20;15.90;99.90
75262;DHT22;63859;51.064;4.580;2022-10-18T00:06:46;16.00;99.90
75262;DHT22;63859;51.064;4.580;2022-10-18T00:09:12;15.90;99.90
75262;DHT22;63859;51.064;4.580;2022-10-18T00:11:38;15.90;99.90
75262;DHT22;63859;51.064;4.580;2022-10-18T00:14:04;15.90;99.90
75262;DHT22;63859;51.064;4.580;2022-10-18T00:16:29;15.90;99.90
75262;DHT22;63859;51.064;4.580;2022-10-18T00:18:55;15.90;99.90
75262;DHT22;63859;51.064;4.580;2022-10-18T00:21:23;15.90;99.90
75262;DHT22;63859;51.064;4.580;2022-10-18T00:23:50;15.90;99.90
75262;DHT22;63859;51.064;4.580;2022-10-18T00:26:19;15.90;99.90
75262;DHT22;63859;51.064;4.580;2022-10-18T00:28:45;15.90;99.90
75262;DHT22;63859;51.064;4.580;2022-10-18T00:31:15;15.90;99.90
75262;DHT22;63859;51.064;4.580;2022-10-18T00:33:42;15.80;99.90
75262;DHT22;63859;51.064;4.580;2022-10-18T00:36:08;15.80;99.90
75262;DHT22;63859;51.064;4.580;2022-10-18T00:38:34;15.80;99.90
75262;DHT22;63859;51.064;4.580;2022-10-18T00:41:00;15.90;99.90
75262;DHT22;63859;51.064;4.580;2022-10-18T00:43:25;15.90;99.90
75262;DHT22;63859;51.064;4.580;2022-10-18T00:45:51;15.80;99.90
75262;DHT22;63859;51.064;4.580;2022-10-18T00:48:18;15.80;99.90
75262;DHT22;63859;51.064;4.580;2022-10-18T00:50:45;15.90;99.90
75262;DHT22;63859;51.064;4.580;2022-10-18T00:53:15;15.80;99.90
75262;DHT22;63859;51.064;4.580;2022-10-18T00:55:41;15.90;99.90
75262;DHT22;63859;51.064;4.580;2022-10-18T00:58:07;15.90;99.90
75262;DHT22;63859;51.064;4.580;2022-10-18T01:00:33;15.90;99.90
75262;DHT22;63859;51.064;4.580;2022-10-18T01:03:03;15.90;99.90
75262;DHT22;63859;51.064;4.580;2022-10-18T01:05:29;15.90;99.90
75262;DHT22;63859;51.064;4.580;2022-10-18T01:08:26;15.90;99.90
75262;DHT22;63859;51.064;4.580;2022-10-18T01:13:40;15.90;99.90
75262;DHT22;63859;51.064;4.580;2022-10-18T01:16:40;15.90;99.90
75262;DHT22;63859;51.064;4.580;2022-10-18T01:30:35;15.80;99.90
75262;DHT22;63859;51.064;4.580;2022-10-18T01:33:17;15.80;99.90
75262;DHT22;63859;51.064;4.580;2022-10-18T01:35:55;15.70;99.90
75262;DHT22;63859;51.064;4.580;2022-10-18T01:38:22;15.80;99.90
75262;DHT22;63859;51.064;4.580;2022-10-18T01:40:49;15.70;99.90
75262;DHT22;63859;51.064;4.580;2022-10-18T01:43:16;15.70;99.90
75262;DHT22;63859;51.064;4.580;2022-10-18T01:45:43;15.80;99.90
75262;DHT22;63859;51.064;4.580;2022-10-18T01:48:10;15.80;99.90
75262;DHT22;63859;51.064;4.580;2022-10-18T01:50:37;15.80;99.90
75262;DHT22;63859;51.064;4.580;2022-10-18T01:53:03;15.80;99.90
75262;DHT22;63859;51.064;4.580;2022-10-18T01:55:36;15.80;99.90
75262;DHT22;63859;51.064;4.580;2022-10-18T01:58:28;15.80;99.90
75262;DHT22;63859;51.064;4.580;2022-10-18T02:01:05;15.80;99.90
75262;DHT22;63859;51.064;4.580;2022-10-18T02:03:34;15.80;99.90
75262;DHT22;63859;51.064;4.580;2022-10-18T02:06:20;15.80;99.90
75262;DHT22;63859;51.064;4.580;2022-10-18T02:11:16;15.70;99.90
75262;DHT22;63859;51.064;4.580;2022-10-18T02:13:47;15.80;99.90
75262;DHT22;63859;51.064;4.580;2022-10-18T02:16:20;15.80;99.90
75262;DHT22;63859;51.064;4.580;2022-10-18T02:18:59;15.70;99.90
75262;DHT22;63859;51.064;4.580;2022-10-18T02:21:27;15.80;99.90
75262;DHT22;63859;51.064;4.580;2022-10-18T02:23:54;15.70;99.90
75262;DHT22;63859;51.064;4.580;2022-10-18T02:26:20;15.70;99.90
75262;DHT22;63859;51.064;4.580;2022-10-18T02:28:46;15.70;99.90
75262;DHT22;63859;51.064;4.580;2022-10-18T02:31:19;15.70;99.90
75262;DHT22;63859;51.064;4.580;2022-10-18T02:33:57;15.70;99.90
75262;DHT22;63859;51.064;4.580;2022-10-18T02:39:05;15.70;99.90
75262;DHT22;63859;51.064;4.580;2022-10-18T02:41:32;15.70;99.90
75262;DHT22;63859;51.064;4.580;2022-10-18T02:43:58;15.70;99.90
75262;DHT22;63859;51.064;4.580;2022-10-18T02:46:23;15.70;99.90
75262;DHT22;63859;51.064;4.580;2022-10-18T02:48:49;15.60;99.90
75262;DHT22;63859;51.064;4.580;2022-10-18T02:51:15;15.70;99.90
75262;DHT22;63859;51.064;4.580;2022-10-18T02:53:40;15.70;99.90
75262;DHT22;63859;51.064;4.580;2022-10-18T02:56:06;15.60;99.90
75262;DHT22;63859;51.064;4.580;2022-10-18T02:58:32;15.60;99.90
75262;DHT22;63859;51.064;4.580;2022-10-18T03:00:58;15.60;99.90
75262;DHT22;63859;51.064;4.580;2022-10-18T03:03:23;15.60;99.90
75262;DHT22;63859;51.064;4.580;2022-10-18T03:05:50;15.60;99.90
75262;DHT22;63859;51.064;4.580;2022-10-18T03:08:16;15.60;99.90
75262;DHT22;63859;51.064;4.580;2022-10-18T03:10:43;15.60;99.90
75262;DHT22;63859;51.064;4.580;2022-10-18T03:13:09;15.70;99.90
75262;DHT22;63859;51.064;4.580;2022-10-18T03:15:35;15.60;99.90
75262;DHT22;63859;51.064;4.580;2022-10-18T03:18:00;15.70;99.90
75262;DHT22;63859;51.064;4.580;2022-10-18T03:20:26;15.60;99.90
75262;DHT22;63859;51.064;4.580;2022-10-18T03:22:51;15.70;99.90
75262;DHT22;63859;51.064;4.580;2022-10-18T03:25:17;15.60;99.90
75262;DHT22;63859;51.064;4.580;2022-10-18T03:27:42;15.60;99.90
75262;DHT22;63859;51.064;4.580;2022-10-18T03:30:08;15.60;99.90
75262;DHT22;63859;51.064;4.580;2022-10-18T03:32:36;15.60;99.90
75262;DHT22;63859;51.064;4.580;2022-10-18T03:35:03;15.60;99.90
75262;DHT22;63859;51.064;4.580;2022-10-18T03:37:29;15.60;99.90
75262;DHT22;63859;51.064;4.580;2022-10-18T03:39:54;15.60;99.90
75262;DHT22;63859;51.064;4.580;2022-10-18T03:42:20;15.60;99.90
75262;DHT22;63859;51.064;4.580;2022-10-18T03:44:46;15.60;99.90
75262;DHT22;63859;51.064;4.580;2022-10-18T03:47:11;15.50;99.90
75262;DHT22;63859;51.064;4.580;2022-10-18T03:49:37;15.50;99.90
75262;DHT22;63859;51.064;4.580;2022-10-18T03:52:03;15.50;99.90
75262;DHT22;63859;51.064;4.580;2022-10-18T03:54:28;15.60;99.90
75262;DHT22;63859;51.064;4.580;2022-10-18T03:56:54;15.50;99.90
75262;DHT22;63859;51.064;4.580;2022-10-18T03:59:20;15.50;99.90
75262;DHT22;63859;51.064;4.580;2022-10-18T04:01:46;15.60;99.90
75262;DHT22;63859;51.064;4.580;2022-10-18T04:04:12;15.50;99.90
75262;DHT22;63859;51.064;4.580;2022-10-18T04:06:37;15.50;99.90
75262;DHT22;63859;51.064;4.580;2022-10-18T04:09:03;15.60;99.90
75262;DHT22;63859;51.064;4.580;2022-10-18T04:11:29;15.50;99.90
75262;DHT22;63859;51.064;4.580;2022-10-18T04:13:54;15.50;99.90
75262;DHT22;63859;51.064;4.580;2022-10-18T04:16:20;15.50;99.90
75262;DHT22;63859;51.064;4.580;2022-10-18T04:18:45;15.50;99.90
75262;DHT22;63859;51.064;4.580;2022-10-18T04:21:11;15.50;99.90
75262;DHT22;63859;51.064;4.580;2022-10-18T04:23:37;15.50;99.90
75262;DHT22;63859;51.064;4.580;2022-10-18T04:26:02;15.50;99.90
75262;DHT22;63859;51.064;4.580;2022-10-18T04:28:28;15.50;99.90
75262;DHT22;63859;51.064;4.580;2022-10-18T04:30:53;15.50;99.90
75262;DHT22;63859;51.064;4.580;2022-10-18T04:33:19;15.50;99.90
75262;DHT22;63859;51.064;4.580;2022-10-18T04:35:49;15.50;99.90
75262;DHT22;63859;51.064;4.580;2022-10-18T04:38:15;15.50;99.90
75262;DHT22;63859;51.064;4.580;2022-10-18T04:40:40;15.50;99.90
75262;DHT22;63859;51.064;4.580;2022-10-18T04:43:06;15.50;99.90
75262;DHT22;63859;51.064;4.580;2022-10-18T04:45:32;15.50;99.90
75262;DHT22;63859;51.064;4.580;2022-10-18T04:47:57;15.50;99.90
75262;DHT22;63859;51.064;4.580;2022-10-18T04:50:23;15.50;99.90
75262;DHT22;63859;51.064;4.580;2022-10-18T04:52:48;15.50;99.90
75262;DHT22;63859;51.064;4.580;2022-10-18T04:55:14;15.50;99.90
75262;DHT22;63859;51.064;4.580;2022-10-18T04:57:40;15.40;99.90
75262;DHT22;63859;51.064;4.580;2022-10-18T05:00:06;15.40;99.90
75262;DHT22;63859;51.064;4.580;2022-10-18T05:02:31;15.40;99.90
75262;DHT22;63859;51.064;4.580;2022-10-18T05:04:57;15.40;99.90
75262;DHT22;63859;51.064;4.580;2022-10-18T05:07:22;15.40;99.90
75262;DHT22;63859;51.064;4.580;2022-10-18T05:09:48;15.40;99.90
75262;DHT22;63859;51.064;4.580;2022-10-18T05:12:14;15.40;99.90
75262;DHT22;63859;51.064;4.580;2022-10-18T05:14:39;15.30;99.90
75262;DHT22;63859;51.064;4.580;2022-10-18T05:17:05;15.30;99.90
75262;DHT22;63859;51.064;4.580;2022-10-18T05:19:31;15.30;99.90
75262;DHT22;63859;51.064;4.580;2022-10-18T05:21:56;15.30;99.90
75262;DHT22;63859;51.064;4.580;2022-10-18T05:24:22;15.30;99.90
75262;DHT22;63859;51.064;4.580;2022-10-18T05:26:47;15.30;99.90
75262;DHT22;63859;51.064;4.580;2022-10-18T05:29:13;15.30;99.90
75262;DHT22;63859;51.064;4.580;2022-10-18T05:31:38;15.30;99.90
75262;DHT22;63859;51.064;4.580;2022-10-18T05:34:04;15.30;99.90
75262;DHT22;63859;51.064;4.580;2022-10-18T05:36:30;15.30;99.90
75262;DHT22;63859;51.064;4.580;2022-10-18T05:38:55;15.30;99.90
75262;DHT22;63859;51.064;4.580;2022-10-18T05:41:21;15.30;99.90
75262;DHT22;63859;51.064;4.580;2022-10-18T05:43:46;15.30;99.90
75262;DHT22;63859;51.064;4.580;2022-10-18T05:46:12;15.30;99.90
75262;DHT22;63859;51.064;4.580;2022-10-18T05:48:38;15.30;99.90
75262;DHT22;63859;51.064;4.580;2022-10-18T05:51:03;15.30;99.90
75262;DHT22;63859;51.064;4.580;2022-10-18T05:53:29;15.30;99.90
75262;DHT22;63859;51.064;4.580;2022-10-18T05:55:59;15.30;99.90
75262;DHT22;63859;51.064;4.580;2022-10-18T05:58:25;15.20;99.90
75262;DHT22;63859;51.064;4.580;2022-10-18T06:00:50;15.30;99.90
75262;DHT22;63859;51.064;4.580;2022-10-18T06:03:16;15.30;99.90
75262;DHT22;63859;51.064;4.580;2022-10-18T06:05:42;15.20;99.90
75262;DHT22;63859;51.064;4.580;2022-10-18T06:08:08;15.20;99.90
75262;DHT22;63859;51.064;4.580;2022-10-18T06:10:34;15.20;99.90
75262;DHT22;63859;51.064;4.580;2022-10-18T06:12:59;15.20;99.90
75262;DHT22;63859;51.064;4.580;2022-10-18T06:15:25;15.20;99.90
75262;DHT22;63859;51.064;4.580;2022-10-18T06:17:51;15.20;99.90
75262;DHT22;63859;51.064;4.580;2022-10-18T06:20:16;15.20;99.90
75262;DHT22;63859;51.064;4.580;2022-10-18T06:22:42;15.20;99.90
75262;DHT22;63859;51.064;4.580;2022-10-18T06:25:08;15.20;99.90
75262;DHT22;63859;51.064;4.580;2022-10-18T06:27:34;15.20;99.90
75262;DHT22;63859;51.064;4.580;2022-10-18T06:29:59;15.20;99.90
75262;DHT22;63859;51.064;4.580;2022-10-18T06:32:25;15.20;99.90
75262;DHT22;63859;51.064;4.580;2022-10-18T06:34:50;15.20;99.90
75262;DHT22;63859;51.064;4.580;2022-10-18T06:37:16;15.10;99.90
75262;DHT22;63859;51.064;4.580;2022-10-18T06:39:42;15.10;99.90
75262;DHT22;63859;51.064;4.580;2022-10-18T06:42:07;15.20;99.90
75262;DHT22;63859;51.064;4.580;2022-10-18T06:44:33;15.20;99.90
75262;DHT22;63859;51.064;4.580;2022-10-18T06:46:58;15.20;99.90
75262;DHT22;63859;51.064;4.580;2022-10-18T06:49:24;15.10;99.90
75262;DHT22;63859;51.064;4.580;2022-10-18T06:51:49;15.20;99.90
75262;DHT22;63859;51.064;4.580;2022-10-18T06:54:15;15.10;99.90
75262;DHT22;63859;51.064;4.580;2022-10-18T06:56:41;15.20;99.90
75262;DHT22;63859;51.064;4.580;2022-10-18T06:59:07;15.10;99.90
75262;DHT22;63859;51.064;4.580;2022-10-18T07:01:32;15.10;99.90
75262;DHT22;63859;51.064;4.580;2022-10-18T07:03:58;15.10;99.90
75262;DHT22;63859;51.064;4.580;2022-10-18T07:06:24;15.10;99.90
75262;DHT22;63859;51.064;4.580;2022-10-18T07:08:50;15.10;99.90
75262;DHT22;63859;51.064;4.580;2022-10-18T07:11:19;15.10;99.90
75262;DHT22;63859;51.064;4.580;2022-10-18T07:13:45;15.10;99.90
75262;DHT22;63859;51.064;4.580;2022-10-18T07:16:13;15.10;99.90
75262;DHT22;63859;51.064;4.580;2022-10-18T07:18:44;15.10;99.90
75262;DHT22;63859;51.064;4.580;2022-10-18T07:21:12;15.10;99.90
75262;DHT22;63859;51.064;4.580;2022-10-18T07:23:40;15.10;99.90
75262;DHT22;63859;51.064;4.580;2022-10-18T07:26:16;15.10;99.90
75262;DHT22;63859;51.064;4.580;2022-10-18T07:28:43;15.10;99.90
75262;DHT22;63859;51.064;4.580;2022-10-18T07:31:10;15.10;99.90
75262;DHT22;63859;51.064;4.580;2022-10-18T07:33:36;15.10;99.90
75262;DHT22;63859;51.064;4.580;2022-10-18T07:36:06;15.20;99.90
75262;DHT22;63859;51.064;4.580;2022-10-18T07:38:33;15.10;99.90
75262;DHT22;63859;51.064;4.580;2022-10-18T07:41:00;15.20;99.90
75262;DHT22;63859;51.064;4.580;2022-10-18T07:43:27;15.20;99.90
75262;DHT22;63859;51.064;4.580;2022-10-18T07:45:54;15.20;99.90
75262;DHT22;63859;51.064;4.580;2022-10-18T07:48:20;15.20;99.90
75262;DHT22;63859;51.064;4.580;2022-10-18T07:50:46;15.20;99.90
75262;DHT22;63859;51.064;4.580;2022-10-18T07:53:12;15.30;99.90
75262;DHT22;63859;51.064;4.580;2022-10-18T07:55:37;15.20;99.90
75262;DHT22;63859;51.064;4.580;2022-10-18T07:58:04;15.30;99.90
75262;DHT22;63859;51.064;4.580;2022-10-18T08:00:29;15.30;99.90
75262;DHT22;63859;51.064;4.580;2022-10-18T08:02:56;15.30;99.90
75262;DHT22;63859;51.064;4.580;2022-10-18T08:05:22;15.40;99.90
75262;DHT22;63859;51.064;4.580;2022-10-18T08:07:48;15.40;99.90
75262;DHT22;63859;51.064;4.580;2022-10-18T08:10:13;15.40;99.90
75262;DHT22;63859;51.064;4.580;2022-10-18T08:12:39;15.40;99.90
75262;DHT22;63859;51.064;4.580;2022-10-18T08:15:05;15.40;99.90
75262;DHT22;63859;51.064;4.580;2022-10-18T08:17:31;15.50;99.90
75262;DHT22;63859;51.064;4.580;2022-10-18T08:19:56;15.50;99.90
75262;DHT22;63859;51.064;4.580;2022-10-18T08:22:22;15.50;99.90
75262;DHT22;63859;51.064;4.580;2022-10-18T08:24:48;15.60;99.90
75262;DHT22;63859;51.064;4.580;2022-10-18T08:27:14;15.60;99.90
75262;DHT22;63859;51.064;4.580;2022-10-18T08:29:39;15.60;99.90
75262;DHT22;63859;51.064;4.580;2022-10-18T08:32:05;15.70;99.90
75262;DHT22;63859;51.064;4.580;2022-10-18T08:34:35;15.70;99.90
75262;DHT22;63859;51.064;4.580;2022-10-18T08:37:01;15.70;99.90
75262;DHT22;63859;51.064;4.580;2022-10-18T08:39:27;15.70;99.90
75262;DHT22;63859;51.064;4.580;2022-10-18T08:42:31;15.70;99.90
75262;DHT22;63859;51.064;4.580;2022-10-18T08:45:00;15.70;99.90
75262;DHT22;63859;51.064;4.580;2022-10-18T08:47:38;15.80;99.90
75262;DHT22;63859;51.064;4.580;2022-10-18T08:50:20;15.80;99.90
75262;DHT22;63859;51.064;4.580;2022-10-18T08:56:11;15.90;99.90
75262;DHT22;63859;51.064;4.580;2022-10-18T08:58:41;15.90;99.90
75262;DHT22;63859;51.064;4.580;2022-10-18T09:09:51;16.00;99.90
75262;DHT22;63859;51.064;4.580;2022-10-18T09:17:41;16.20;99.90
75262;DHT22;63859;51.064;4.580;2022-10-18T09:20:25;16.20;99.90
75262;DHT22;63859;51.064;4.580;2022-10-18T09:22:52;16.20;99.90
75262;DHT22;63859;51.064;4.580;2022-10-18T09:30:53;16.40;99.90
75262;DHT22;63859;51.064;4.580;2022-10-18T09:35:59;16.40;99.90
75262;DHT22;63859;51.064;4.580;2022-10-18T09:41:05;16.50;99.90
75262;DHT22;63859;51.064;4.580;2022-10-18T09:46:21;16.60;99.90
75262;DHT22;63859;51.064;4.580;2022-10-18T09:48:58;16.70;99.90
75262;DHT22;63859;51.064;4.580;2022-10-18T09:51:29;16.70;99.90
75262;DHT22;63859;51.064;4.580;2022-10-18T09:56:54;16.80;99.50
75262;DHT22;63859;51.064;4.580;2022-10-18T09:59:35;16.80;99.40
75262;DHT22;63859;51.064;4.580;2022-10-18T10:02:02;16.90;99.60
75262;DHT22;63859;51.064;4.580;2022-10-18T10:04:27;16.90;99.10
75262;DHT22;63859;51.064;4.580;2022-10-18T10:06:55;16.90;98.90
75262;DHT22;63859;51.064;4.580;2022-10-18T10:09:36;16.90;98.40
75262;DHT22;63859;51.064;4.580;2022-10-18T10:12:21;16.90;98.70
75262;DHT22;63859;51.064;4.580;2022-10-18T10:14:47;17.00;98.50
75262;DHT22;63859;51.064;4.580;2022-10-18T10:17:22;17.00;98.40
75262;DHT22;63859;51.064;4.580;2022-10-18T10:22:38;17.00;98.40
75262;DHT22;63859;51.064;4.580;2022-10-18T10:25:05;17.00;98.30
75262;DHT22;63859;51.064;4.580;2022-10-18T10:27:36;17.00;98.40
75262;DHT22;63859;51.064;4.580;2022-10-18T10:30:23;17.00;97.90
75262;DHT22;63859;51.064;4.580;2022-10-18T10:32:50;17.10;98.30
75262;DHT22;63859;51.064;4.580;2022-10-18T10:35:31;17.20;98.00
75262;DHT22;63859;51.064;4.580;2022-10-18T10:37:57;17.20;97.30
75262;DHT22;63859;51.064;4.580;2022-10-18T10:40:27;17.30;97.20
75262;DHT22;63859;51.064;4.580;2022-10-18T10:43:04;17.30;96.30
75262;DHT22;63859;51.064;4.580;2022-10-18T10:45:40;17.40;96.60
75262;DHT22;63859;51.064;4.580;2022-10-18T10:48:13;17.40;96.60
75262;DHT22;63859;51.064;4.580;2022-10-18T10:51:10;17.50;96.30
75262;DHT22;63859;51.064;4.580;2022-10-18T10:54:16;17.60;95.70
75262;DHT22;63859;51.064;4.580;2022-10-18T10:57:06;17.60;95.10
75262;DHT22;63859;51.064;4.580;2022-10-18T10:59:44;17.60;94.70
75262;DHT22;63859;51.064;4.580;2022-10-18T11:04:43;17.60;93.90
75262;DHT22;63859;51.064;4.580;2022-10-18T11:18:03;18.10;93.80
75262;DHT22;63859;51.064;4.580;2022-10-18T11:20:40;18.10;94.10
75262;DHT22;63859;51.064;4.580;2022-10-18T11:23:10;18.20;94.30
75262;DHT22;63859;51.064;4.580;2022-10-18T11:28:15;18.30;94.00
75262;DHT22;63859;51.064;4.580;2022-10-18T11:36:06;18.60;92.90
75262;DHT22;63859;51.064;4.580;2022-10-18T11:41:26;18.70;92.80
75262;DHT22;63859;51.064;4.580;2022-10-18T11:43:57;18.80;91.80
75262;DHT22;63859;51.064;4.580;2022-10-18T11:49:41;18.80;91.60
75262;DHT22;63859;51.064;4.580;2022-10-18T11:55:02;19.00;91.90
75262;DHT22;63859;51.064;4.580;2022-10-18T12:00:36;19.20;92.50
75262;DHT22;63859;51.064;4.580;2022-10-18T12:05:51;19.40;90.80
75262;DHT22;63859;51.064;4.580;2022-10-18T12:10:52;19.50;91.00
75262;DHT22;63859;51.064;4.580;2022-10-18T12:13:50;19.50;91.00
75262;DHT22;63859;51.064;4.580;2022-10-18T12:16:19;19.60;92.00
75262;DHT22;63859;51.064;4.580;2022-10-18T12:18:55;19.60;91.00
75262;DHT22;63859;51.064;4.580;2022-10-18T12:21:24;19.70;91.80
75262;DHT22;63859;51.064;4.580;2022-10-18T12:24:19;19.70;91.00
75262;DHT22;63859;51.064;4.580;2022-10-18T12:26:46;19.70;91.00
75262;DHT22;63859;51.064;4.580;2022-10-18T12:31:58;19.80;91.70
75262;DHT22;63859;51.064;4.580;2022-10-18T12:39:57;19.90;90.40
75262;DHT22;63859;51.064;4.580;2022-10-18T12:42:27;19.90;90.30
75262;DHT22;63859;51.064;4.580;2022-10-18T12:45:05;20.00;90.80
75262;DHT22;63859;51.064;4.580;2022-10-18T12:47:32;20.10;91.00
75262;DHT22;63859;51.064;4.580;2022-10-18T12:50:07;20.30;91.30
75262;DHT22;63859;51.064;4.580;2022-10-18T12:55:37;20.40;91.20
75262;DHT22;63859;51.064;4.580;2022-10-18T13:00:50;20.40;91.10
75262;DHT22;63859;51.064;4.580;2022-10-18T13:05:55;20.50;90.70
75262;DHT22;63859;51.064;4.580;2022-10-18T13:16:22;20.60;90.30
75262;DHT22;63859;51.064;4.580;2022-10-18T13:18:55;20.70;90.50
75262;DHT22;63859;51.064;4.580;2022-10-18T13:25:09;20.80;86.20
75262;DHT22;63859;51.064;4.580;2022-10-18T13:33:32;21.10;86.90
75262;DHT22;63859;51.064;4.580;2022-10-18T13:38:40;21.20;85.70
75262;DHT22;63859;51.064;4.580;2022-10-18T13:44:28;21.00;84.00
75262;DHT22;63859;51.064;4.580;2022-10-18T14:00:25;20.90;88.00
75262;DHT22;63859;51.064;4.580;2022-10-18T14:11:23;20.50;88.00
75262;DHT22;63859;51.064;4.580;2022-10-18T14:13:54;20.40;86.60
75262;DHT22;63859;51.064;4.580;2022-10-18T14:16:47;20.30;88.30
75262;DHT22;63859;51.064;4.580;2022-10-18T14:22:12;20.10;88.60
75262;DHT22;63859;51.064;4.580;2022-10-18T14:24:45;20.00;89.30
75262;DHT22;63859;51.064;4.580;2022-10-18T14:29:50;19.90;89.60
75262;DHT22;63859;51.064;4.580;2022-10-18T14:32:31;19.80;88.50
75262;DHT22;63859;51.064;4.580;2022-10-18T14:34:57;19.80;88.90
75262;DHT22;63859;51.064;4.580;2022-10-18T14:37:35;19.70;87.50
75262;DHT22;63859;51.064;4.580;2022-10-18T14:40:02;19.60;87.70
75262;DHT22;63859;51.064;4.580;2022-10-18T14:42:28;19.50;88.00
75262;DHT22;63859;51.064;4.580;2022-10-18T14:44:54;19.50;88.10
75262;DHT22;63859;51.064;4.580;2022-10-18T14:47:27;19.40;89.30
75262;DHT22;63859;51.064;4.580;2022-10-18T14:49:54;19.40;90.10
75262;DHT22;63859;51.064;4.580;2022-10-18T14:52:32;19.40;90.00
75262;DHT22;63859;51.064;4.580;2022-10-18T14:54:58;19.40;90.60
75262;DHT22;63859;51.064;4.580;2022-10-18T14:57:29;19.30;90.70
75262;DHT22;63859;51.064;4.580;2022-10-18T15:00:01;19.30;90.90
75262;DHT22;63859;51.064;4.580;2022-10-18T15:02:34;19.30;90.50
75262;DHT22;63859;51.064;4.580;2022-10-18T15:07:35;19.10;90.00
75262;DHT22;63859;51.064;4.580;2022-10-18T15:10:03;19.10;89.50
75262;DHT22;63859;51.064;4.580;2022-10-18T15:12:29;19.00;89.30
75262;DHT22;63859;51.064;4.580;2022-10-18T15:14:56;19.00;89.80
75262;DHT22;63859;51.064;4.580;2022-10-18T15:17:28;19.00;90.40
75262;DHT22;63859;51.064;4.580;2022-10-18T15:22:28;18.80;90.60
75262;DHT22;63859;51.064;4.580;2022-10-18T15:25:25;18.80;90.60
75262;DHT22;63859;51.064;4.580;2022-10-18T15:27:54;18.80;91.00
75262;DHT22;63859;51.064;4.580;2022-10-18T15:30:29;18.80;91.30
75262;DHT22;63859;51.064;4.580;2022-10-18T15:33:02;18.80;91.00
75262;DHT22;63859;51.064;4.580;2022-10-18T15:35:30;18.70;90.70
75262;DHT22;63859;51.064;4.580;2022-10-18T15:38:11;18.70;90.50
75262;DHT22;63859;51.064;4.580;2022-10-18T15:40:38;18.70;90.80
75262;DHT22;63859;51.064;4.580;2022-10-18T15:45:52;18.60;90.70
75262;DHT22;63859;51.064;4.580;2022-10-18T15:51:01;18.60;90.70
75262;DHT22;63859;51.064;4.580;2022-10-18T15:53:51;18.50;90.80
75262;DHT22;63859;51.064;4.580;2022-10-18T15:56:34;18.40;91.10
75262;DHT22;63859;51.064;4.580;2022-10-18T15:59:03;18.40;91.50
75262;DHT22;63859;51.064;4.580;2022-10-18T16:01:42;18.30;91.60
75262;DHT22;63859;51.064;4.580;2022-10-18T16:06:48;18.20;92.00
75262;DHT22;63859;51.064;4.580;2022-10-18T16:09:19;18.10;91.80
75262;DHT22;63859;51.064;4.580;2022-10-18T16:11:46;18.00;91.80
75262;DHT22;63859;51.064;4.580;2022-10-18T16:14:14;18.00;91.70
75262;DHT22;63859;51.064;4.580;2022-10-18T16:16:39;17.90;92.10
75262;DHT22;63859;51.064;4.580;2022-10-18T16:19:06;17.80;92.00
75262;DHT22;63859;51.064;4.580;2022-10-18T16:21:35;17.80;92.20
75262;DHT22;63859;51.064;4.580;2022-10-18T16:24:01;17.70;92.30
75262;DHT22;63859;51.064;4.580;2022-10-18T16:26:27;17.60;92.60
75262;DHT22;63859;51.064;4.580;2022-10-18T16:28:54;17.60;93.00
75262;DHT22;63859;51.064;4.580;2022-10-18T16:31:25;17.50;92.80
75262;DHT22;63859;51.064;4.580;2022-10-18T16:33:52;17.40;92.40
75262;DHT22;63859;51.064;4.580;2022-10-18T16:36:27;17.40;92.70
75262;DHT22;63859;51.064;4.580;2022-10-18T16:38:53;17.30;92.10
75262;DHT22;63859;51.064;4.580;2022-10-18T16:41:20;17.30;92.30
75262;DHT22;63859;51.064;4.580;2022-10-18T16:43:47;17.20;92.50
75262;DHT22;63859;51.064;4.580;2022-10-18T16:48:44;17.10;92.50
75262;DHT22;63859;51.064;4.580;2022-10-18T16:51:10;17.00;92.60
75262;DHT22;63859;51.064;4.580;2022-10-18T16:53:36;17.00;92.60
75262;DHT22;63859;51.064;4.580;2022-10-18T16:56:03;16.90;93.10
75262;DHT22;63859;51.064;4.580;2022-10-18T16:58:30;16.90;93.30
75262;DHT22;63859;51.064;4.580;2022-10-18T17:00:57;16.80;93.30
75262;DHT22;63859;51.064;4.580;2022-10-18T17:03:24;16.70;93.20
75262;DHT22;63859;51.064;4.580;2022-10-18T17:05:51;16.70;93.40
75262;DHT22;63859;51.064;4.580;2022-10-18T17:08:25;16.70;93.80
75262;DHT22;63859;51.064;4.580;2022-10-18T17:10:53;16.60;93.50
75262;DHT22;63859;51.064;4.580;2022-10-18T17:13:21;16.60;93.70
75262;DHT22;63859;51.064;4.580;2022-10-18T17:15:47;16.50;93.60
75262;DHT22;63859;51.064;4.580;2022-10-18T17:18:19;16.40;93.60
75262;DHT22;63859;51.064;4.580;2022-10-18T17:20:46;16.40;93.50
75262;DHT22;63859;51.064;4.580;2022-10-18T17:23:11;16.30;93.50
75262;DHT22;63859;51.064;4.580;2022-10-18T17:25:39;16.30;93.60
75262;DHT22;63859;51.064;4.580;2022-10-18T17:28:05;16.20;94.00
75262;DHT22;63859;51.064;4.580;2022-10-18T17:30:32;16.20;94.30
75262;DHT22;63859;51.064;4.580;2022-10-18T17:32:57;16.20;94.30
75262;DHT22;63859;51.064;4.580;2022-10-18T17:35:23;16.10;94.40
75262;DHT22;63859;51.064;4.580;2022-10-18T17:37:50;16.10;94.30
75262;DHT22;63859;51.064;4.580;2022-10-18T17:40:18;16.00;94.50
75262;DHT22;63859;51.064;4.580;2022-10-18T17:42:43;15.90;94.50
75262;DHT22;63859;51.064;4.580;2022-10-18T17:45:09;15.90;94.40
75262;DHT22;63859;51.064;4.580;2022-10-18T17:47:35;15.80;94.50
75262;DHT22;63859;51.064;4.580;2022-10-18T17:50:00;15.80;94.70
75262;DHT22;63859;51.064;4.580;2022-10-18T17:52:26;15.80;94.70
75262;DHT22;63859;51.064;4.580;2022-10-18T17:54:51;15.70;94.60
75262;DHT22;63859;51.064;4.580;2022-10-18T17:57:17;15.70;94.40
75262;DHT22;63859;51.064;4.580;2022-10-18T17:59:43;15.60;94.40
75262;DHT22;63859;51.064;4.580;2022-10-18T18:02:10;15.60;94.40
75262;DHT22;63859;51.064;4.580;2022-10-18T18:04:36;15.50;94.20
75262;DHT22;63859;51.064;4.580;2022-10-18T18:07:01;15.50;94.30
75262;DHT22;63859;51.064;4.580;2022-10-18T18:09:29;15.40;94.20
75262;DHT22;63859;51.064;4.580;2022-10-18T18:11:55;15.30;94.30
75262;DHT22;63859;51.064;4.580;2022-10-18T18:14:21;15.30;94.40
75262;DHT22;63859;51.064;4.580;2022-10-18T18:16:47;15.30;94.20
75262;DHT22;63859;51.064;4.580;2022-10-18T18:19:14;15.20;94.30
75262;DHT22;63859;51.064;4.580;2022-10-18T18:21:40;15.20;94.50
75262;DHT22;63859;51.064;4.580;2022-10-18T18:24:07;15.20;94.50
75262;DHT22;63859;51.064;4.580;2022-10-18T18:26:34;15.10;94.80
75262;DHT22;63859;51.064;4.580;2022-10-18T18:29:01;15.10;94.60
75262;DHT22;63859;51.064;4.580;2022-10-18T18:31:26;15.00;94.40
75262;DHT22;63859;51.064;4.580;2022-10-18T18:33:54;15.00;94.70
75262;DHT22;63859;51.064;4.580;2022-10-18T18:36:20;15.00;94.90
75262;DHT22;63859;51.064;4.580;2022-10-18T18:38:46;15.00;94.60